sensor_id;sensor_type;location;lat;lon;timestamp;pressure;altitude;pressure_sealevel;temperature;humidity
65534;BME280;53640;55.838;37.184;2024-01-25T00:01:47;97915.19;;;-1.40;65.38
65534;BME280;53640;55.838;37.184;2024-01-25T00:04:13;97887.34;;;-1.67;65.71
65534;BME280;53640;55.838;37.184;2024-01-25T00:06:40;97935.00;;;-1.28;65.50
65534;BME280;53640;55.838;37.184;2024-01-25T00:09:06;97933.00;;;-1.26;65.42
65534;BME280;53640;55.838;37.184;2024-01-25T00:11:32;97880.81;;;-1.56;66.05
65534;BME280;53640;55.838;37.184;2024-01-25T00:13:59;97870.97;;;-1.48;65.52
65534;BME280;53640;55.838;37.184;2024-01-25T00:16:27;97886.19;;;-1.42;65.57
65534;BME280;53640;55.838;37.184;2024-01-25T00:18:56;97865.38;;;-1.53;65.50
65534;BME280;53640;55.838;37.184;2024-01-25T00:21:23;97852.94;;;-1.52;65.72
65534;BME280;53640;55.838;37.184;2024-01-25T00:23:49;97892.31;;;-1.41;66.13
65534;BME280;53640;55.838;37.184;2024-01-25T00:26:16;97893.06;;;-1.32;65.82
65534;BME280;53640;55.838;37.184;2024-01-25T00:28:43;97879.03;;;-1.41;65.83
65534;BME280;53640;55.838;37.184;2024-01-25T00:31:11;97895.91;;;-1.34;66.63
65534;BME280;53640;55.838;37.184;2024-01-25T00:33:38;97808.25;;;-1.87;65.95
65534;BME280;53640;55.838;37.184;2024-01-25T00:36:08;97852.25;;;-1.54;65.72
65534;BME280;53640;55.838;37.184;2024-01-25T00:38:34;97905.78;;;-1.28;66.05
65534;BME280;53640;55.838;37.184;2024-01-25T00:41:01;97880.94;;;-1.27;65.90
65534;BME280;53640;55.838;37.184;2024-01-25T00:43:28;97881.75;;;-1.26;65.82
65534;BME280;53640;55.838;37.184;2024-01-25T00:45:54;97854.97;;;-1.40;65.51
65534;BME280;53640;55.838;37.184;2024-01-25T00:48:21;97885.22;;;-1.26;65.89
65534;BME280;53640;55.838;37.184;2024-01-25T00:50:48;97798.25;;;-1.76;65.46
65534;BME280;53640;55.838;37.184;2024-01-25T00:53:17;97872.63;;;-1.24;65.80
65534;BME280;53640;55.838;37.184;2024-01-25T00:55:46;97886.41;;;-1.28;66.17
65534;BME280;53640;55.838;37.184;2024-01-25T00:58:13;97861.75;;;-1.37;65.82
65534;BME280;53640;55.838;37.184;2024-01-25T01:00:40;97779.47;;;-1.75;65.40
65534;BME280;53640;55.838;37.184;2024-01-25T01:03:08;97853.72;;;-1.29;65.51
65534;BME280;53640;55.838;37.184;2024-01-25T01:05:34;97813.25;;;-1.46;65.19
65534;BME280;53640;55.838;37.184;2024-01-25T01:08:01;97790.97;;;-1.60;65.61
65534;BME280;53640;55.838;37.184;2024-01-25T01:10:31;97858.75;;;-1.34;66.23
65534;BME280;53640;55.838;37.184;2024-01-25T01:12:58;97849.69;;;-1.25;65.91
65534;BME280;53640;55.838;37.184;2024-01-25T01:15:25;97805.75;;;-1.42;65.87
65534;BME280;53640;55.838;37.184;2024-01-25T01:17:51;97819.31;;;-1.22;65.25
65534;BME280;53640;55.838;37.184;2024-01-25T01:20:17;97798.16;;;-1.45;65.46
65534;BME280;53640;55.838;37.184;2024-01-25T01:22:44;97829.13;;;-1.23;65.48
65534;BME280;53640;55.838;37.184;2024-01-25T01:25:11;97787.13;;;-1.57;65.99
65534;BME280;53640;55.838;37.184;2024-01-25T01:27:37;97840.81;;;-1.32;66.08
65534;BME280;53640;55.838;37.184;2024-01-25T01:30:04;97779.66;;;-1.53;65.70
65534;BME280;53640;55.838;37.184;2024-01-25T01:32:35;97758.84;;;-1.65;65.35
65534;BME280;53640;55.838;37.184;2024-01-25T01:35:01;97768.09;;;-1.61;65.63
65534;BME280;53640;55.838;37.184;2024-01-25T01:37:29;97768.72;;;-1.59;65.45
65534;BME280;53640;55.838;37.184;2024-01-25T01:39:55;97819.50;;;-1.39;64.71
65534;BME280;53640;55.838;37.184;2024-01-25T01:42:22;97798.97;;;-1.45;65.26
65534;BME280;53640;55.838;37.184;2024-01-25T01:44:50;97796.66;;;-1.48;65.36
65534;BME280;53640;55.838;37.184;2024-01-25T01:47:18;97771.03;;;-1.55;65.28
65534;BME280;53640;55.838;37.184;2024-01-25T01:49:44;97814.38;;;-1.25;64.89
65534;BME280;53640;55.838;37.184;2024-01-25T01:52:11;97797.72;;;-1.34;65.07
65534;BME280;53640;55.838;37.184;2024-01-25T01:54:38;97806.38;;;-1.40;65.38
65534;BME280;53640;55.838;37.184;2024-01-25T01:57:05;97756.47;;;-1.60;65.00
65534;BME280;53640;55.838;37.184;2024-01-25T01:59:33;97784.28;;;-1.55;64.98
65534;BME280;53640;55.838;37.184;2024-01-25T02:02:00;97807.97;;;-1.31;65.22
65534;BME280;53640;55.838;37.184;2024-01-25T02:04:27;97771.97;;;-1.48;64.60
65534;BME280;53640;55.838;37.184;2024-01-25T02:06:53;97770.03;;;-1.40;64.92
65534;BME280;53640;55.838;37.184;2024-01-25T02:09:22;97809.84;;;-1.40;64.95
65534;BME280;53640;55.838;37.184;2024-01-25T02:12:04;97799.63;;;-1.28;64.89
65534;BME280;53640;55.838;37.184;2024-01-25T02:14:32;97756.13;;;-1.56;64.68
65534;BME280;53640;55.838;37.184;2024-01-25T02:17:01;97789.63;;;-1.41;65.06
65534;BME280;53640;55.838;37.184;2024-01-25T02:19:27;97807.44;;;-1.26;64.87
65534;BME280;53640;55.838;37.184;2024-01-25T02:21:55;97757.13;;;-1.57;64.95
65534;BME280;53640;55.838;37.184;2024-01-25T02:24:26;97800.28;;;-1.26;64.78
65534;BME280;53640;55.838;37.184;2024-01-25T02:26:52;97776.47;;;-1.34;64.59
65534;BME280;53640;55.838;37.184;2024-01-25T02:29:19;97798.63;;;-1.27;64.82
65534;BME280;53640;55.838;37.184;2024-01-25T02:31:50;97732.47;;;-1.66;65.25
65534;BME280;53640;55.838;37.184;2024-01-25T02:34:17;97658.56;;;-2.22;65.43
65534;BME280;53640;55.838;37.184;2024-01-25T02:36:43;97761.16;;;-1.47;65.00
65534;BME280;53640;55.838;37.184;2024-01-25T02:39:10;97754.53;;;-1.66;65.55
65534;BME280;53640;55.838;37.184;2024-01-25T02:41:36;97729.09;;;-1.75;65.69
65534;BME280;53640;55.838;37.184;2024-01-25T02:44:02;97766.16;;;-1.67;66.64
65534;BME280;53640;55.838;37.184;2024-01-25T02:46:29;97768.28;;;-1.47;65.50
65534;BME280;53640;55.838;37.184;2024-01-25T02:48:56;97724.56;;;-1.89;66.38
65534;BME280;53640;55.838;37.184;2024-01-25T02:51:23;97734.41;;;-1.75;65.13
65534;BME280;53640;55.838;37.184;2024-01-25T02:53:49;97786.25;;;-1.49;65.37
65534;BME280;53640;55.838;37.184;2024-01-25T02:56:15;97728.31;;;-1.98;66.01
65534;BME280;53640;55.838;37.184;2024-01-25T02:58:43;97759.00;;;-1.66;65.39
65534;BME280;53640;55.838;37.184;2024-01-25T03:01:09;97769.53;;;-1.58;65.70
65534;BME280;53640;55.838;37.184;2024-01-25T03:03:37;97714.16;;;-1.91;66.15
65534;BME280;53640;55.838;37.184;2024-01-25T03:06:06;97764.91;;;-1.56;65.80
65534;BME280;53640;55.838;37.184;2024-01-25T03:08:32;97695.72;;;-2.07;66.65
65534;BME280;53640;55.838;37.184;2024-01-25T03:11:00;97753.72;;;-1.66;65.88
65534;BME280;53640;55.838;37.184;2024-01-25T03:13:31;97747.47;;;-1.73;66.01
65534;BME280;53640;55.838;37.184;2024-01-25T03:15:58;97715.66;;;-1.96;66.37
65534;BME280;53640;55.838;37.184;2024-01-25T03:18:24;97773.28;;;-1.67;66.21
65534;BME280;53640;55.838;37.184;2024-01-25T03:20:51;97777.91;;;-1.84;67.63
65534;BME280;53640;55.838;37.184;2024-01-25T03:23:18;97732.72;;;-1.91;66.65
65534;BME280;53640;55.838;37.184;2024-01-25T03:25:47;97664.00;;;-2.38;66.70
65534;BME280;53640;55.838;37.184;2024-01-25T03:28:15;97692.97;;;-2.14;66.82
65534;BME280;53640;55.838;37.184;2024-01-25T03:30:46;97769.94;;;-1.61;66.48
65534;BME280;53640;55.838;37.184;2024-01-25T03:33:12;97758.94;;;-1.73;66.28
65534;BME280;53640;55.838;37.184;2024-01-25T03:35:39;97681.91;;;-2.17;66.62
65534;BME280;53640;55.838;37.184;2024-01-25T03:38:05;97772.28;;;-1.66;66.33
65534;BME280;53640;55.838;37.184;2024-01-25T03:40:33;97618.56;;;-2.73;67.37
65534;BME280;53640;55.838;37.184;2024-01-25T03:43:02;97770.44;;;-1.66;66.32
65534;BME280;53640;55.838;37.184;2024-01-25T03:45:28;97732.72;;;-1.91;66.59
65534;BME280;53640;55.838;37.184;2024-01-25T03:47:56;97763.16;;;-1.64;66.08
65534;BME280;53640;55.838;37.184;2024-01-25T03:50:23;97713.34;;;-1.91;65.66
65534;BME280;53640;55.838;37.184;2024-01-25T03:52:49;97746.72;;;-2.28;67.73
65534;BME280;53640;55.838;37.184;2024-01-25T03:55:16;97693.84;;;-2.21;66.81
65534;BME280;53640;55.838;37.184;2024-01-25T03:57:44;97752.50;;;-1.78;66.54
65534;BME280;53640;55.838;37.184;2024-01-25T04:00:11;97748.19;;;-1.79;65.91
65534;BME280;53640;55.838;37.184;2024-01-25T04:02:38;97688.66;;;-2.15;66.50
65534;BME280;53640;55.838;37.184;2024-01-25T04:05:05;97701.38;;;-2.10;67.38
65534;BME280;53640;55.838;37.184;2024-01-25T04:07:31;97671.41;;;-2.57;67.43
65534;BME280;53640;55.838;37.184;2024-01-25T04:09:58;97726.97;;;-1.79;66.84
65534;BME280;53640;55.838;37.184;2024-01-25T04:12:24;97684.59;;;-2.02;66.56
65534;BME280;53640;55.838;37.184;2024-01-25T04:14:51;97737.81;;;-1.89;67.30
65534;BME280;53640;55.838;37.184;2024-01-25T04:17:17;97740.78;;;-1.84;67.53
65534;BME280;53640;55.838;37.184;2024-01-25T04:19:44;97750.50;;;-1.76;67.00
65534;BME280;53640;55.838;37.184;2024-01-25T04:22:10;97719.44;;;-1.91;67.08
65534;BME280;53640;55.838;37.184;2024-01-25T04:24:37;97697.19;;;-2.04;66.80
65534;BME280;53640;55.838;37.184;2024-01-25T04:27:03;97723.75;;;-1.90;67.18
65534;BME280;53640;55.838;37.184;2024-01-25T04:29:31;97703.31;;;-2.27;66.55
65534;BME280;53640;55.838;37.184;2024-01-25T04:31:58;97743.66;;;-1.94;67.50
65534;BME280;53640;55.838;37.184;2024-01-25T04:34:24;97734.91;;;-1.94;67.14
65534;BME280;53640;55.838;37.184;2024-01-25T04:36:51;97738.84;;;-1.90;66.94
65534;BME280;53640;55.838;37.184;2024-01-25T04:39:17;97737.22;;;-1.99;66.87
65534;BME280;53640;55.838;37.184;2024-01-25T04:41:44;97700.53;;;-2.11;66.84
65534;BME280;53640;55.838;37.184;2024-01-25T04:44:10;97721.88;;;-2.04;66.95
65534;BME280;53640;55.838;37.184;2024-01-25T04:46:41;97684.25;;;-2.45;66.87
65534;BME280;53640;55.838;37.184;2024-01-25T04:49:12;97694.13;;;-2.16;67.07
65534;BME280;53640;55.838;37.184;2024-01-25T04:51:40;97676.81;;;-2.27;66.61
65534;BME280;53640;55.838;37.184;2024-01-25T04:54:07;97603.06;;;-2.84;67.00
65534;BME280;53640;55.838;37.184;2024-01-25T04:56:37;97718.53;;;-2.21;66.86
65534;BME280;53640;55.838;37.184;2024-01-25T04:59:03;97709.34;;;-2.10;66.68
65534;BME280;53640;55.838;37.184;2024-01-25T05:01:32;97650.13;;;-2.40;66.80
65534;BME280;53640;55.838;37.184;2024-01-25T05:04:00;97552.28;;;-3.11;66.84
65534;BME280;53640;55.838;37.184;2024-01-25T05:06:26;97687.56;;;-2.43;67.83
65534;BME280;53640;55.838;37.184;2024-01-25T05:08:53;97646.28;;;-2.61;66.68
65534;BME280;53640;55.838;37.184;2024-01-25T05:11:21;97615.09;;;-2.73;66.25
65534;BME280;53640;55.838;37.184;2024-01-25T05:13:48;97623.97;;;-2.66;66.40
65534;BME280;53640;55.838;37.184;2024-01-25T05:16:15;97709.69;;;-2.13;66.59
65534;BME280;53640;55.838;37.184;2024-01-25T05:18:42;97664.34;;;-2.41;66.48
65534;BME280;53640;55.838;37.184;2024-01-25T05:21:09;97735.47;;;-2.07;66.65
65534;BME280;53640;55.838;37.184;2024-01-25T05:23:35;97604.66;;;-2.75;65.40
65534;BME280;53640;55.838;37.184;2024-01-25T05:26:02;97561.06;;;-3.10;66.02
65534;BME280;53640;55.838;37.184;2024-01-25T05:28:29;97683.06;;;-2.43;66.13
65534;BME280;53640;55.838;37.184;2024-01-25T05:30:58;97721.31;;;-1.99;66.05
65534;BME280;53640;55.838;37.184;2024-01-25T05:33:24;97683.94;;;-2.27;66.26
65534;BME280;53640;55.838;37.184;2024-01-25T05:35:50;97708.88;;;-2.14;66.10
65534;BME280;53640;55.838;37.184;2024-01-25T05:38:19;97661.41;;;-2.46;65.69
65534;BME280;53640;55.838;37.184;2024-01-25T05:40:45;97666.75;;;-2.32;65.81
65534;BME280;53640;55.838;37.184;2024-01-25T05:43:12;97585.94;;;-2.96;66.26
65534;BME280;53640;55.838;37.184;2024-01-25T05:45:38;97689.31;;;-2.36;65.72
65534;BME280;53640;55.838;37.184;2024-01-25T05:48:10;97686.31;;;-2.55;66.30
65534;BME280;53640;55.838;37.184;2024-01-25T05:50:39;97718.81;;;-2.16;65.71
65534;BME280;53640;55.838;37.184;2024-01-25T05:53:06;97698.16;;;-2.43;65.45
65534;BME280;53640;55.838;37.184;2024-01-25T05:55:33;97743.53;;;-2.00;65.67
65534;BME280;53640;55.838;37.184;2024-01-25T05:58:00;97714.41;;;-2.23;65.35
65534;BME280;53640;55.838;37.184;2024-01-25T06:00:27;97711.97;;;-2.33;66.04
65534;BME280;53640;55.838;37.184;2024-01-25T06:02:54;97738.84;;;-2.36;67.36
65534;BME280;53640;55.838;37.184;2024-01-25T06:05:21;97713.91;;;-2.27;65.98
65534;BME280;53640;55.838;37.184;2024-01-25T06:07:47;97736.19;;;-2.13;66.29
65534;BME280;53640;55.838;37.184;2024-01-25T06:10:16;97669.41;;;-2.54;65.95
65534;BME280;53640;55.838;37.184;2024-01-25T06:12:42;97723.47;;;-2.18;65.59
65534;BME280;53640;55.838;37.184;2024-01-25T06:15:09;97685.31;;;-2.32;65.58
65534;BME280;53640;55.838;37.184;2024-01-25T06:17:35;97677.34;;;-2.54;65.61
65534;BME280;53640;55.838;37.184;2024-01-25T06:20:03;97695.09;;;-2.32;64.98
65534;BME280;53640;55.838;37.184;2024-01-25T06:22:31;97686.47;;;-2.34;65.16
65534;BME280;53640;55.838;37.184;2024-01-25T06:24:57;97572.31;;;-3.08;64.83
65534;BME280;53640;55.838;37.184;2024-01-25T06:27:24;97712.44;;;-2.29;65.42
65534;BME280;53640;55.838;37.184;2024-01-25T06:29:54;97655.34;;;-2.55;64.78
65534;BME280;53640;55.838;37.184;2024-01-25T06:32:20;97680.75;;;-2.69;65.83
65534;BME280;53640;55.838;37.184;2024-01-25T06:34:48;97742.91;;;-2.25;65.97
65534;BME280;53640;55.838;37.184;2024-01-25T06:37:16;97718.69;;;-2.22;65.56
65534;BME280;53640;55.838;37.184;2024-01-25T06:39:46;97733.34;;;-2.12;65.37
65534;BME280;53640;55.838;37.184;2024-01-25T06:42:14;97694.69;;;-2.21;65.01
65534;BME280;53640;55.838;37.184;2024-01-25T06:44:40;97702.63;;;-2.21;64.57
65534;BME280;53640;55.838;37.184;2024-01-25T06:47:07;97727.94;;;-2.18;65.43
65534;BME280;53640;55.838;37.184;2024-01-25T06:49:34;97724.53;;;-2.27;64.63
65534;BME280;53640;55.838;37.184;2024-01-25T06:52:00;97736.47;;;-2.08;65.01
65534;BME280;53640;55.838;37.184;2024-01-25T06:54:29;97741.63;;;-2.06;64.37
65534;BME280;53640;55.838;37.184;2024-01-25T06:56:57;97556.16;;;-3.21;64.64
65534;BME280;53640;55.838;37.184;2024-01-25T06:59:24;97603.59;;;-2.89;64.66
65534;BME280;53640;55.838;37.184;2024-01-25T07:01:50;97587.66;;;-3.03;64.73
65534;BME280;53640;55.838;37.184;2024-01-25T07:04:20;97617.59;;;-2.80;65.13
65534;BME280;53640;55.838;37.184;2024-01-25T07:06:47;97672.34;;;-2.49;64.90
65534;BME280;53640;55.838;37.184;2024-01-25T07:09:13;97681.53;;;-2.37;64.57
65534;BME280;53640;55.838;37.184;2024-01-25T07:11:40;97748.72;;;-2.07;65.16
65534;BME280;53640;55.838;37.184;2024-01-25T07:14:06;97668.34;;;-2.45;64.72
65534;BME280;53640;55.838;37.184;2024-01-25T07:16:33;97691.44;;;-2.31;63.94
65534;BME280;53640;55.838;37.184;2024-01-25T07:19:00;97656.88;;;-2.61;64.31
65534;BME280;53640;55.838;37.184;2024-01-25T07:21:27;97564.00;;;-3.05;64.28
65534;BME280;53640;55.838;37.184;2024-01-25T07:23:56;97608.03;;;-2.81;64.28
65534;BME280;53640;55.838;37.184;2024-01-25T07:26:23;97663.53;;;-2.42;64.54
65534;BME280;53640;55.838;37.184;2024-01-25T07:28:50;97710.84;;;-2.16;64.73
65534;BME280;53640;55.838;37.184;2024-01-25T07:31:19;97734.03;;;-2.10;64.59
65534;BME280;53640;55.838;37.184;2024-01-25T07:33:48;97661.47;;;-2.54;64.70
65534;BME280;53640;55.838;37.184;2024-01-25T07:36:17;97690.00;;;-2.42;65.02
65534;BME280;53640;55.838;37.184;2024-01-25T07:38:46;97716.16;;;-2.16;63.89
65534;BME280;53640;55.838;37.184;2024-01-25T07:41:15;97716.75;;;-2.05;63.71
65534;BME280;53640;55.838;37.184;2024-01-25T07:43:44;97600.16;;;-2.97;64.28
65534;BME280;53640;55.838;37.184;2024-01-25T07:46:11;97623.16;;;-2.67;64.06
65534;BME280;53640;55.838;37.184;2024-01-25T07:48:40;97720.22;;;-2.05;64.32
65534;BME280;53640;55.838;37.184;2024-01-25T07:51:12;97711.94;;;-2.25;63.71
65534;BME280;53640;55.838;37.184;2024-01-25T07:53:41;97638.84;;;-2.65;63.54
65534;BME280;53640;55.838;37.184;2024-01-25T07:56:10;97640.56;;;-2.72;63.34
65534;BME280;53640;55.838;37.184;2024-01-25T07:58:37;97666.50;;;-2.45;63.98
65534;BME280;53640;55.838;37.184;2024-01-25T08:01:06;97675.41;;;-2.38;63.67
65534;BME280;53640;55.838;37.184;2024-01-25T08:03:35;97648.28;;;-2.63;63.57
65534;BME280;53640;55.838;37.184;2024-01-25T08:06:02;97724.53;;;-2.04;63.46
65534;BME280;53640;55.838;37.184;2024-01-25T08:08:29;97684.97;;;-2.28;64.05
65534;BME280;53640;55.838;37.184;2024-01-25T08:10:56;97714.34;;;-2.15;63.36
65534;BME280;53640;55.838;37.184;2024-01-25T08:13:37;97714.75;;;-2.26;63.97
65534;BME280;53640;55.838;37.184;2024-01-25T08:16:04;97617.06;;;-2.75;63.33
65534;BME280;53640;55.838;37.184;2024-01-25T08:18:36;97734.13;;;-2.03;62.78
65534;BME280;53640;55.838;37.184;2024-01-25T08:21:06;97574.34;;;-3.18;62.56
65534;BME280;53640;55.838;37.184;2024-01-25T08:23:32;97646.63;;;-2.64;62.52
65534;BME280;53640;55.838;37.184;2024-01-25T08:25:59;97696.84;;;-2.47;62.78
65534;BME280;53640;55.838;37.184;2024-01-25T08:28:29;97682.81;;;-2.33;61.33
65534;BME280;53640;55.838;37.184;2024-01-25T08:30:55;97743.31;;;-2.14;62.07
65534;BME280;53640;55.838;37.184;2024-01-25T08:33:23;97636.09;;;-2.72;62.12
65534;BME280;53640;55.838;37.184;2024-01-25T08:35:52;97623.72;;;-2.79;62.36
65534;BME280;53640;55.838;37.184;2024-01-25T08:38:20;97633.16;;;-2.77;62.99
65534;BME280;53640;55.838;37.184;2024-01-25T08:40:49;97623.84;;;-2.73;62.90
65534;BME280;53640;55.838;37.184;2024-01-25T08:43:16;97604.56;;;-2.82;63.04
65534;BME280;53640;55.838;37.184;2024-01-25T08:45:42;97732.25;;;-1.94;62.25
65534;BME280;53640;55.838;37.184;2024-01-25T08:48:09;97739.38;;;-1.95;62.89
65534;BME280;53640;55.838;37.184;2024-01-25T08:50:36;97672.13;;;-2.40;62.76
65534;BME280;53640;55.838;37.184;2024-01-25T08:53:03;97721.44;;;-1.93;62.18
65534;BME280;53640;55.838;37.184;2024-01-25T08:55:30;97744.41;;;-1.85;62.23
65534;BME280;53640;55.838;37.184;2024-01-25T08:57:56;97726.22;;;-1.88;61.72
65534;BME280;53640;55.838;37.184;2024-01-25T09:00:23;97695.78;;;-2.15;61.30
65534;BME280;53640;55.838;37.184;2024-01-25T09:02:50;97634.09;;;-2.47;61.12
65534;BME280;53640;55.838;37.184;2024-01-25T09:05:18;97706.84;;;-2.12;61.82
65534;BME280;53640;55.838;37.184;2024-01-25T09:07:46;97732.88;;;-1.92;61.45
65534;BME280;53640;55.838;37.184;2024-01-25T09:10:13;97666.22;;;-2.27;61.50
65534;BME280;53640;55.838;37.184;2024-01-25T09:12:41;97703.16;;;-2.02;61.33
65534;BME280;53640;55.838;37.184;2024-01-25T09:15:09;97685.28;;;-2.09;61.18
65534;BME280;53640;55.838;37.184;2024-01-25T09:17:36;97570.28;;;-2.83;61.39
65534;BME280;53640;55.838;37.184;2024-01-25T09:20:06;97681.16;;;-2.11;61.04
65534;BME280;53640;55.838;37.184;2024-01-25T09:22:33;97659.28;;;-2.28;61.01
65534;BME280;53640;55.838;37.184;2024-01-25T09:24:59;97620.25;;;-2.57;61.59
65534;BME280;53640;55.838;37.184;2024-01-25T09:27:25;97727.22;;;-1.89;60.76
65534;BME280;53640;55.838;37.184;2024-01-25T09:29:52;97656.28;;;-2.25;61.06
65534;BME280;53640;55.838;37.184;2024-01-25T09:32:18;97641.44;;;-2.34;61.01
65534;BME280;53640;55.838;37.184;2024-01-25T09:34:52;97747.00;;;-1.77;61.06
65534;BME280;53640;55.838;37.184;2024-01-25T09:37:25;97729.44;;;-1.78;60.96
65534;BME280;53640;55.838;37.184;2024-01-25T09:39:55;97698.78;;;-1.95;61.21
65534;BME280;53640;55.838;37.184;2024-01-25T09:42:25;97678.13;;;-2.23;61.92
65534;BME280;53640;55.838;37.184;2024-01-25T09:45:03;97571.31;;;-2.84;61.14
65534;BME280;53640;55.838;37.184;2024-01-25T09:47:39;97663.16;;;-2.16;61.36
65534;BME280;53640;55.838;37.184;2024-01-25T09:50:12;97571.94;;;-2.82;60.96
65534;BME280;53640;55.838;37.184;2024-01-25T09:52:54;97522.84;;;-3.08;60.68
65534;BME280;53640;55.838;37.184;2024-01-25T09:55:27;97542.25;;;-2.92;60.61
65534;BME280;53640;55.838;37.184;2024-01-25T09:57:59;97656.97;;;-2.31;61.19
65534;BME280;53640;55.838;37.184;2024-01-25T10:00:28;97520.06;;;-3.14;61.28
65534;BME280;53640;55.838;37.184;2024-01-25T10:02:56;97566.00;;;-2.84;61.12
65534;BME280;53640;55.838;37.184;2024-01-25T10:05:24;97725.38;;;-1.89;61.19
65534;BME280;53640;55.838;37.184;2024-01-25T10:07:57;97625.19;;;-2.54;61.96
65534;BME280;53640;55.838;37.184;2024-01-25T10:10:32;97652.91;;;-2.42;61.69
65534;BME280;53640;55.838;37.184;2024-01-25T10:13:04;97681.44;;;-2.21;61.44
65534;BME280;53640;55.838;37.184;2024-01-25T10:15:39;97563.41;;;-2.92;61.65
65534;BME280;53640;55.838;37.184;2024-01-25T10:18:08;97572.31;;;-2.85;61.68
65534;BME280;53640;55.838;37.184;2024-01-25T10:20:42;97686.03;;;-2.00;61.70
65534;BME280;53640;55.838;37.184;2024-01-25T10:23:13;97605.78;;;-2.69;62.53
65534;BME280;53640;55.838;37.184;2024-01-25T10:25:52;97669.13;;;-2.14;61.51
65534;BME280;53640;55.838;37.184;2024-01-25T10:28:24;97581.53;;;-2.81;60.69
65534;BME280;53640;55.838;37.184;2024-01-25T10:31:00;97687.19;;;-2.17;61.12
65534;BME280;53640;55.838;37.184;2024-01-25T10:33:33;97610.47;;;-2.57;61.44
65534;BME280;53640;55.838;37.184;2024-01-25T10:36:01;97707.47;;;-1.87;61.91
65534;BME280;53640;55.838;37.184;2024-01-25T10:38:35;97711.22;;;-1.81;61.79
65534;BME280;53640;55.838;37.184;2024-01-25T10:41:03;97710.41;;;-1.81;61.88
65534;BME280;53640;55.838;37.184;2024-01-25T10:43:31;97683.22;;;-1.98;61.90
65534;BME280;53640;55.838;37.184;2024-01-25T10:45:59;97707.06;;;-1.75;61.56
65534;BME280;53640;55.838;37.184;2024-01-25T10:48:28;97645.25;;;-2.14;61.84
65534;BME280;53640;55.838;37.184;2024-01-25T10:50:57;97647.53;;;-2.11;61.42
65534;BME280;53640;55.838;37.184;2024-01-25T10:53:34;97686.00;;;-1.77;61.23
65534;BME280;53640;55.838;37.184;2024-01-25T10:56:01;97613.84;;;-2.40;61.46
65534;BME280;53640;55.838;37.184;2024-01-25T10:58:32;97702.09;;;-1.78;61.53
65534;BME280;53640;55.838;37.184;2024-01-25T11:00:59;97690.56;;;-1.86;62.55
65534;BME280;53640;55.838;37.184;2024-01-25T11:03:30;97685.53;;;-1.80;61.76
65534;BME280;53640;55.838;37.184;2024-01-25T11:06:07;97723.59;;;-1.73;62.59
65534;BME280;53640;55.838;37.184;2024-01-25T11:08:48;97664.13;;;-1.94;62.23
65534;BME280;53640;55.838;37.184;2024-01-25T11:11:15;97702.22;;;-1.72;62.27
65534;BME280;53640;55.838;37.184;2024-01-25T11:13:43;97710.44;;;-1.67;62.80
65534;BME280;53640;55.838;37.184;2024-01-25T11:16:16;97714.28;;;-1.69;62.57
65534;BME280;53640;55.838;37.184;2024-01-25T11:18:54;97626.75;;;-2.22;62.84
65534;BME280;53640;55.838;37.184;2024-01-25T11:21:46;97717.59;;;-1.67;63.29
65534;BME280;53640;55.838;37.184;2024-01-25T11:24:15;97721.13;;;-1.75;63.35
65534;BME280;53640;55.838;37.184;2024-01-25T11:26:43;97706.22;;;-1.76;62.88
65534;BME280;53640;55.838;37.184;2024-01-25T11:29:19;97671.25;;;-1.94;63.10
65534;BME280;53640;55.838;37.184;2024-01-25T11:31:49;97732.13;;;-1.63;63.75
65534;BME280;53640;55.838;37.184;2024-01-25T11:34:16;97679.84;;;-1.92;63.35
65534;BME280;53640;55.838;37.184;2024-01-25T11:36:46;97711.88;;;-1.79;63.55
65534;BME280;53640;55.838;37.184;2024-01-25T11:39:19;97704.28;;;-1.82;63.62
65534;BME280;53640;55.838;37.184;2024-01-25T11:41:46;97678.97;;;-2.08;63.70
65534;BME280;53640;55.838;37.184;2024-01-25T11:44:13;97615.81;;;-2.42;64.13
65534;BME280;53640;55.838;37.184;2024-01-25T11:46:40;97683.84;;;-1.96;63.96
65534;BME280;53640;55.838;37.184;2024-01-25T11:49:07;97630.13;;;-2.28;63.96
65534;BME280;53640;55.838;37.184;2024-01-25T11:51:33;97676.81;;;-2.04;63.67
65534;BME280;53640;55.838;37.184;2024-01-25T11:54:03;97706.13;;;-1.83;63.75
65534;BME280;53640;55.838;37.184;2024-01-25T11:56:36;97657.31;;;-2.11;63.80
65534;BME280;53640;55.838;37.184;2024-01-25T11:59:07;97599.88;;;-2.57;63.27
65534;BME280;53640;55.838;37.184;2024-01-25T12:01:37;97640.72;;;-2.28;63.21
65534;BME280;53640;55.838;37.184;2024-01-25T12:04:10;97535.13;;;-2.92;63.68
65534;BME280;53640;55.838;37.184;2024-01-25T12:06:39;97644.44;;;-2.37;63.47
65534;BME280;53640;55.838;37.184;2024-01-25T12:09:10;97663.28;;;-2.09;63.43
65534;BME280;53640;55.838;37.184;2024-01-25T12:11:41;97702.06;;;-1.93;63.47
65534;BME280;53640;55.838;37.184;2024-01-25T12:15:05;97684.22;;;-1.99;63.42
65534;BME280;53640;55.838;37.184;2024-01-25T12:17:33;97666.69;;;-2.23;64.02
65534;BME280;53640;55.838;37.184;2024-01-25T12:20:02;97706.28;;;-1.99;63.93
65534;BME280;53640;55.838;37.184;2024-01-25T12:22:30;97686.13;;;-2.08;63.63
65534;BME280;53640;55.838;37.184;2024-01-25T12:25:01;97735.28;;;-1.83;64.09
65534;BME280;53640;55.838;37.184;2024-01-25T12:27:29;97721.44;;;-1.93;63.93
65534;BME280;53640;55.838;37.184;2024-01-25T12:29:59;97747.38;;;-1.80;63.88
65534;BME280;53640;55.838;37.184;2024-01-25T12:32:28;97730.19;;;-1.84;63.68
65534;BME280;53640;55.838;37.184;2024-01-25T12:34:59;97721.44;;;-1.93;64.18
65534;BME280;53640;55.838;37.184;2024-01-25T12:37:35;97751.09;;;-1.89;64.35
65534;BME280;53640;55.838;37.184;2024-01-25T12:40:06;97726.94;;;-1.94;64.33
65534;BME280;53640;55.838;37.184;2024-01-25T12:42:34;97748.44;;;-1.89;64.28
65534;BME280;53640;55.838;37.184;2024-01-25T12:45:04;97733.59;;;-1.98;64.63
65534;BME280;53640;55.838;37.184;2024-01-25T12:47:32;97691.28;;;-2.15;63.86
65534;BME280;53640;55.838;37.184;2024-01-25T12:49:58;97686.78;;;-2.29;64.10
65534;BME280;53640;55.838;37.184;2024-01-25T12:52:29;97727.16;;;-2.04;64.38
65534;BME280;53640;55.838;37.184;2024-01-25T12:54:55;97737.53;;;-1.94;64.45
65534;BME280;53640;55.838;37.184;2024-01-25T12:57:22;97709.09;;;-2.23;64.23